sensor_id;sensor_type;location;lat;lon;timestamp;temperature;humidity
5605;DHT22;9297;47.258;11.362;2024-02-04T00:00:15;4.20;90.70
5605;DHT22;9297;47.258;11.362;2024-02-04T00:02:42;4.20;90.70
5605;DHT22;9297;47.258;11.362;2024-02-04T00:05:09;4.20;91.10
5605;DHT22;9297;47.258;11.362;2024-02-04T00:07:36;4.20;91.20
5605;DHT22;9297;47.258;11.362;2024-02-04T00:10:03;4.10;91.70
5605;DHT22;9297;47.258;11.362;2024-02-04T00:12:32;4.00;92.50
5605;DHT22;9297;47.258;11.362;2024-02-04T00:14:59;4.10;92.10
5605;DHT22;9297;47.258;11.362;2024-02-04T00:17:26;4.10;92.00
5605;DHT22;9297;47.258;11.362;2024-02-04T00:19:52;4.00;91.80
5605;DHT22;9297;47.258;11.362;2024-02-04T00:22:19;4.00;91.60
5605;DHT22;9297;47.258;11.362;2024-02-04T00:24:46;4.00;91.50
5605;DHT22;9297;47.258;11.362;2024-02-04T00:27:13;4.10;91.50
5605;DHT22;9297;47.258;11.362;2024-02-04T00:29:42;4.10;92.40
5605;DHT22;9297;47.258;11.362;2024-02-04T00:32:09;4.10;92.40
5605;DHT22;9297;47.258;11.362;2024-02-04T00:34:36;4.00;91.10
5605;DHT22;9297;47.258;11.362;2024-02-04T00:37:03;3.90;92.70
5605;DHT22;9297;47.258;11.362;2024-02-04T00:39:30;3.90;92.50
5605;DHT22;9297;47.258;11.362;2024-02-04T00:41:57;3.90;91.90
5605;DHT22;9297;47.258;11.362;2024-02-04T00:44:24;3.80;93.30
5605;DHT22;9297;47.258;11.362;2024-02-04T00:46:53;3.80;93.80
5605;DHT22;9297;47.258;11.362;2024-02-04T00:49:20;3.70;92.00
5605;DHT22;9297;47.258;11.362;2024-02-04T00:51:47;3.80;92.30
5605;DHT22;9297;47.258;11.362;2024-02-04T00:54:14;3.70;92.20
5605;DHT22;9297;47.258;11.362;2024-02-04T00:56:40;3.80;92.20
5605;DHT22;9297;47.258;11.362;2024-02-04T00:59:07;3.90;92.30
5605;DHT22;9297;47.258;11.362;2024-02-04T01:01:34;3.70;92.00
5605;DHT22;9297;47.258;11.362;2024-02-04T01:04:03;3.70;90.90
5605;DHT22;9297;47.258;11.362;2024-02-04T01:06:30;3.60;90.80
5605;DHT22;9297;47.258;11.362;2024-02-04T01:09:09;3.50;91.90
5605;DHT22;9297;47.258;11.362;2024-02-04T01:11:35;3.50;91.70
5605;DHT22;9297;47.258;11.362;2024-02-04T01:14:02;3.70;92.10
5605;DHT22;9297;47.258;11.362;2024-02-04T01:16:29;3.50;92.40
5605;DHT22;9297;47.258;11.362;2024-02-04T01:18:56;3.50;92.70
5605;DHT22;9297;47.258;11.362;2024-02-04T01:21:25;3.50;93.10
5605;DHT22;9297;47.258;11.362;2024-02-04T01:23:52;3.50;93.70
5605;DHT22;9297;47.258;11.362;2024-02-04T01:26:19;3.40;94.60
5605;DHT22;9297;47.258;11.362;2024-02-04T01:28:45;3.40;93.70
5605;DHT22;9297;47.258;11.362;2024-02-04T01:31:12;3.40;93.70
5605;DHT22;9297;47.258;11.362;2024-02-04T01:33:39;3.30;94.20
5605;DHT22;9297;47.258;11.362;2024-02-04T01:36:07;3.30;93.40
5605;DHT22;9297;47.258;11.362;2024-02-04T01:38:35;3.30;94.10
5605;DHT22;9297;47.258;11.362;2024-02-04T01:41:02;3.30;93.80
5605;DHT22;9297;47.258;11.362;2024-02-04T01:43:29;3.30;91.80
5605;DHT22;9297;47.258;11.362;2024-02-04T01:45:56;3.20;92.90
5605;DHT22;9297;47.258;11.362;2024-02-04T01:48:23;3.20;92.40
5605;DHT22;9297;47.258;11.362;2024-02-04T01:50:51;3.20;92.60
5605;DHT22;9297;47.258;11.362;2024-02-04T01:53:21;3.30;92.70
5605;DHT22;9297;47.258;11.362;2024-02-04T01:55:50;3.30;93.70
5605;DHT22;9297;47.258;11.362;2024-02-04T01:58:17;3.40;93.10
5605;DHT22;9297;47.258;11.362;2024-02-04T02:00:45;3.30;94.50
5605;DHT22;9297;47.258;11.362;2024-02-04T02:03:13;3.10;93.80
5605;DHT22;9297;47.258;11.362;2024-02-04T02:05:41;3.10;96.30
5605;DHT22;9297;47.258;11.362;2024-02-04T02:08:08;2.90;96.60
5605;DHT22;9297;47.258;11.362;2024-02-04T02:10:35;2.90;96.90
5605;DHT22;9297;47.258;11.362;2024-02-04T02:13:09;2.90;97.10
5605;DHT22;9297;47.258;11.362;2024-02-04T02:15:43;3.00;97.20
5605;DHT22;9297;47.258;11.362;2024-02-04T02:18:15;3.00;95.50
5605;DHT22;9297;47.258;11.362;2024-02-04T02:20:55;3.10;94.90
5605;DHT22;9297;47.258;11.362;2024-02-04T02:23:30;3.10;94.30
5605;DHT22;9297;47.258;11.362;2024-02-04T02:26:00;3.10;94.50
5605;DHT22;9297;47.258;11.362;2024-02-04T02:28:28;3.20;95.30
5605;DHT22;9297;47.258;11.362;2024-02-04T02:30:55;3.10;96.20
5605;DHT22;9297;47.258;11.362;2024-02-04T02:33:22;3.00;95.90
5605;DHT22;9297;47.258;11.362;2024-02-04T02:35:56;3.00;96.00
5605;DHT22;9297;47.258;11.362;2024-02-04T02:38:29;3.10;95.80
5605;DHT22;9297;47.258;11.362;2024-02-04T02:41:03;3.10;96.30
5605;DHT22;9297;47.258;11.362;2024-02-04T02:43:32;3.10;95.60
5605;DHT22;9297;47.258;11.362;2024-02-04T02:46:00;3.10;96.60
5605;DHT22;9297;47.258;11.362;2024-02-04T02:48:28;3.00;96.90
5605;DHT22;9297;47.258;11.362;2024-02-04T02:50:55;3.10;96.00
5605;DHT22;9297;47.258;11.362;2024-02-04T02:53:22;3.00;96.20
5605;DHT22;9297;47.258;11.362;2024-02-04T02:55:49;3.00;96.30
5605;DHT22;9297;47.258;11.362;2024-02-04T02:58:17;3.10;96.00
5605;DHT22;9297;47.258;11.362;2024-02-04T03:00:44;3.00;95.90
5605;DHT22;9297;47.258;11.362;2024-02-04T03:03:11;3.00;96.10
5605;DHT22;9297;47.258;11.362;2024-02-04T03:05:38;2.90;96.60
5605;DHT22;9297;47.258;11.362;2024-02-04T03:08:06;2.60;98.80
5605;DHT22;9297;47.258;11.362;2024-02-04T03:10:33;2.70;98.10
5605;DHT22;9297;47.258;11.362;2024-02-04T03:12:59;2.70;97.00
5605;DHT22;9297;47.258;11.362;2024-02-04T03:15:28;2.70;97.50
5605;DHT22;9297;47.258;11.362;2024-02-04T03:17:55;2.70;97.80
5605;DHT22;9297;47.258;11.362;2024-02-04T03:20:24;2.70;97.60
5605;DHT22;9297;47.258;11.362;2024-02-04T03:22:51;2.70;98.20
5605;DHT22;9297;47.258;11.362;2024-02-04T03:25:18;2.80;97.90
5605;DHT22;9297;47.258;11.362;2024-02-04T03:27:45;2.80;98.10
5605;DHT22;9297;47.258;11.362;2024-02-04T03:30:12;2.90;98.00
5605;DHT22;9297;47.258;11.362;2024-02-04T03:32:41;2.90;97.80
5605;DHT22;9297;47.258;11.362;2024-02-04T03:35:08;3.00;97.10
5605;DHT22;9297;47.258;11.362;2024-02-04T03:37:35;3.10;97.50
5605;DHT22;9297;47.258;11.362;2024-02-04T03:40:02;3.00;97.50
5605;DHT22;9297;47.258;11.362;2024-02-04T03:42:29;2.90;97.50
5605;DHT22;9297;47.258;11.362;2024-02-04T03:44:56;2.70;97.90
5605;DHT22;9297;47.258;11.362;2024-02-04T03:47:23;2.70;98.70
5605;DHT22;9297;47.258;11.362;2024-02-04T03:49:51;2.80;98.60
5605;DHT22;9297;47.258;11.362;2024-02-04T03:52:18;2.80;98.00
5605;DHT22;9297;47.258;11.362;2024-02-04T03:54:45;2.90;97.60
5605;DHT22;9297;47.258;11.362;2024-02-04T03:57:12;2.80;96.80
5605;DHT22;9297;47.258;11.362;2024-02-04T03:59:39;2.90;97.30
5605;DHT22;9297;47.258;11.362;2024-02-04T04:02:07;2.90;97.00
5605;DHT22;9297;47.258;11.362;2024-02-04T04:04:33;2.90;96.90
5605;DHT22;9297;47.258;11.362;2024-02-04T04:07:02;2.80;97.20
5605;DHT22;9297;47.258;11.362;2024-02-04T04:09:29;2.70;99.70
5605;DHT22;9297;47.258;11.362;2024-02-04T04:11:56;2.80;99.00
5605;DHT22;9297;47.258;11.362;2024-02-04T04:14:23;2.80;97.80
5605;DHT22;9297;47.258;11.362;2024-02-04T04:16:50;2.90;97.80
5605;DHT22;9297;47.258;11.362;2024-02-04T04:19:17;2.90;98.00
5605;DHT22;9297;47.258;11.362;2024-02-04T04:21:44;2.90;98.10
5605;DHT22;9297;47.258;11.362;2024-02-04T04:24:13;2.80;98.40
5605;DHT22;9297;47.258;11.362;2024-02-04T04:26:40;2.70;99.60
5605;DHT22;9297;47.258;11.362;2024-02-04T04:29:06;2.60;97.80
5605;DHT22;9297;47.258;11.362;2024-02-04T04:31:33;2.60;98.50
5605;DHT22;9297;47.258;11.362;2024-02-04T04:34:00;2.70;97.60
5605;DHT22;9297;47.258;11.362;2024-02-04T04:36:27;2.70;97.30
5605;DHT22;9297;47.258;11.362;2024-02-04T04:38:54;2.70;97.70
5605;DHT22;9297;47.258;11.362;2024-02-04T04:41:23;2.70;98.00
5605;DHT22;9297;47.258;11.362;2024-02-04T04:43:50;2.60;99.10
5605;DHT22;9297;47.258;11.362;2024-02-04T04:46:17;2.70;99.00
5605;DHT22;9297;47.258;11.362;2024-02-04T04:48:44;2.70;98.70
5605;DHT22;9297;47.258;11.362;2024-02-04T04:51:11;2.70;98.20
5605;DHT22;9297;47.258;11.362;2024-02-04T04:53:38;2.80;97.40
5605;DHT22;9297;47.258;11.362;2024-02-04T04:56:06;2.80;98.00
5605;DHT22;9297;47.258;11.362;2024-02-04T04:58:35;2.70;98.60
5605;DHT22;9297;47.258;11.362;2024-02-04T05:01:02;2.70;98.30
5605;DHT22;9297;47.258;11.362;2024-02-04T05:03:29;2.80;98.50
5605;DHT22;9297;47.258;11.362;2024-02-04T05:05:56;2.80;99.20
5605;DHT22;9297;47.258;11.362;2024-02-04T05:08:23;2.90;98.20
5605;DHT22;9297;47.258;11.362;2024-02-04T05:10:50;2.80;98.30
5605;DHT22;9297;47.258;11.362;2024-02-04T05:13:16;2.80;98.40
5605;DHT22;9297;47.258;11.362;2024-02-04T05:15:45;2.90;98.50
5605;DHT22;9297;47.258;11.362;2024-02-04T05:18:12;2.90;98.60
5605;DHT22;9297;47.258;11.362;2024-02-04T05:20:39;2.90;98.20
5605;DHT22;9297;47.258;11.362;2024-02-04T05:23:06;2.90;98.70
5605;DHT22;9297;47.258;11.362;2024-02-04T05:25:33;2.90;98.70
5605;DHT22;9297;47.258;11.362;2024-02-04T05:28:00;2.90;98.80
5605;DHT22;9297;47.258;11.362;2024-02-04T05:30:27;2.80;98.50
5605;DHT22;9297;47.258;11.362;2024-02-04T05:32:55;2.80;99.90
5605;DHT22;9297;47.258;11.362;2024-02-04T05:35:22;2.80;99.40
5605;DHT22;9297;47.258;11.362;2024-02-04T05:37:49;2.90;99.80
5605;DHT22;9297;47.258;11.362;2024-02-04T05:40:16;2.90;99.20
5605;DHT22;9297;47.258;11.362;2024-02-04T05:42:44;3.00;99.20
5605;DHT22;9297;47.258;11.362;2024-02-04T05:45:11;2.90;99.30
5605;DHT22;9297;47.258;11.362;2024-02-04T05:47:38;2.70;99.90
5605;DHT22;9297;47.258;11.362;2024-02-04T05:50:07;2.80;99.90
5605;DHT22;9297;47.258;11.362;2024-02-04T05:52:35;2.90;99.90
5605;DHT22;9297;47.258;11.362;2024-02-04T05:55:01;2.90;99.90
5605;DHT22;9297;47.258;11.362;2024-02-04T05:57:31;2.80;99.90
5605;DHT22;9297;47.258;11.362;2024-02-04T05:59:58;2.90;99.80
5605;DHT22;9297;47.258;11.362;2024-02-04T06:02:25;2.90;99.30
5605;DHT22;9297;47.258;11.362;2024-02-04T06:04:52;2.90;99.50
5605;DHT22;9297;47.258;11.362;2024-02-04T06:07:20;2.90;99.50
5605;DHT22;9297;47.258;11.362;2024-02-04T06:09:47;2.90;99.90
5605;DHT22;9297;47.258;11.362;2024-02-04T06:12:14;2.90;99.30
5605;DHT22;9297;47.258;11.362;2024-02-04T06:14:41;2.90;99.90
5605;DHT22;9297;47.258;11.362;2024-02-04T06:17:08;2.80;98.70
5605;DHT22;9297;47.258;11.362;2024-02-04T06:19:35;2.80;98.60
5605;DHT22;9297;47.258;11.362;2024-02-04T06:22:03;2.60;99.10
5605;DHT22;9297;47.258;11.362;2024-02-04T06:24:31;2.70;99.60
5605;DHT22;9297;47.258;11.362;2024-02-04T06:26:58;2.70;99.40
5605;DHT22;9297;47.258;11.362;2024-02-04T06:29:25;2.50;99.90
5605;DHT22;9297;47.258;11.362;2024-02-04T06:31:52;2.50;99.90
5605;DHT22;9297;47.258;11.362;2024-02-04T06:34:19;2.40;99.90
5605;DHT22;9297;47.258;11.362;2024-02-04T06:36:46;2.40;99.90
5605;DHT22;9297;47.258;11.362;2024-02-04T06:39:14;2.50;99.90
5605;DHT22;9297;47.258;11.362;2024-02-04T06:41:42;2.60;99.90
5605;DHT22;9297;47.258;11.362;2024-02-04T06:44:11;2.50;99.80
5605;DHT22;9297;47.258;11.362;2024-02-04T06:46:37;2.50;99.90
5605;DHT22;9297;47.258;11.362;2024-02-04T06:49:04;2.60;99.90
5605;DHT22;9297;47.258;11.362;2024-02-04T06:51:32;2.60;99.90
5605;DHT22;9297;47.258;11.362;2024-02-04T06:53:59;2.60;99.90
5605;DHT22;9297;47.258;11.362;2024-02-04T06:56:25;2.60;99.60
5605;DHT22;9297;47.258;11.362;2024-02-04T06:58:54;2.50;99.90
5605;DHT22;9297;47.258;11.362;2024-02-04T07:01:21;2.70;99.50
5605;DHT22;9297;47.258;11.362;2024-02-04T07:03:48;2.70;99.70
5605;DHT22;9297;47.258;11.362;2024-02-04T07:06:15;6.20;99.90
5605;DHT22;9297;47.258;11.362;2024-02-04T07:08:42;6.80;99.90
5605;DHT22;9297;47.258;11.362;2024-02-04T07:11:08;8.10;99.90
5605;DHT22;9297;47.258;11.362;2024-02-04T07:13:35;8.90;99.90
5605;DHT22;9297;47.258;11.362;2024-02-04T07:16:04;7.60;78.70
5605;DHT22;9297;47.258;11.362;2024-02-04T07:18:31;6.40;80.10
5605;DHT22;9297;47.258;11.362;2024-02-04T07:20:58;5.60;81.40
5605;DHT22;9297;47.258;11.362;2024-02-04T07:23:25;5.00;85.80
5605;DHT22;9297;47.258;11.362;2024-02-04T07:25:52;4.50;86.70
5605;DHT22;9297;47.258;11.362;2024-02-04T07:28:19;4.30;88.30
5605;DHT22;9297;47.258;11.362;2024-02-04T07:30:46;4.10;90.20
5605;DHT22;9297;47.258;11.362;2024-02-04T07:33:14;4.00;91.50
5605;DHT22;9297;47.258;11.362;2024-02-04T07:35:41;3.80;92.50
5605;DHT22;9297;47.258;11.362;2024-02-04T07:38:08;3.60;92.70
5605;DHT22;9297;47.258;11.362;2024-02-04T07:40:35;3.40;94.40
5605;DHT22;9297;47.258;11.362;2024-02-04T07:43:02;3.40;95.00
5605;DHT22;9297;47.258;11.362;2024-02-04T07:45:29;3.30;95.50
5605;DHT22;9297;47.258;11.362;2024-02-04T07:47:56;3.30;96.50
5605;DHT22;9297;47.258;11.362;2024-02-04T07:50:25;3.00;97.50
5605;DHT22;9297;47.258;11.362;2024-02-04T07:52:52;3.00;96.90
5605;DHT22;9297;47.258;11.362;2024-02-04T07:55:19;3.10;98.10
5605;DHT22;9297;47.258;11.362;2024-02-04T07:57:46;3.20;97.30
5605;DHT22;9297;47.258;11.362;2024-02-04T08:00:13;3.10;97.90
5605;DHT22;9297;47.258;11.362;2024-02-04T08:02:40;3.30;98.40
5605;DHT22;9297;47.258;11.362;2024-02-04T08:05:08;3.30;97.90
5605;DHT22;9297;47.258;11.362;2024-02-04T08:07:36;3.40;98.30
5605;DHT22;9297;47.258;11.362;2024-02-04T08:10:04;3.50;98.30
5605;DHT22;9297;47.258;11.362;2024-02-04T08:12:31;3.50;98.50
5605;DHT22;9297;47.258;11.362;2024-02-04T08:14:58;3.50;99.80
5605;DHT22;9297;47.258;11.362;2024-02-04T08:17:25;3.60;99.00
5605;DHT22;9297;47.258;11.362;2024-02-04T08:19:52;3.50;99.20
5605;DHT22;9297;47.258;11.362;2024-02-04T08:22:20;3.50;98.90
5605;DHT22;9297;47.258;11.362;2024-02-04T08:24:48;3.50;99.50
5605;DHT22;9297;47.258;11.362;2024-02-04T08:27:15;3.50;99.80
5605;DHT22;9297;47.258;11.362;2024-02-04T08:29:42;3.50;99.90
5605;DHT22;9297;47.258;11.362;2024-02-04T08:32:09;3.70;99.10
5605;DHT22;9297;47.258;11.362;2024-02-04T08:34:36;3.60;99.90
5605;DHT22;9297;47.258;11.362;2024-02-04T08:37:03;3.60;99.40
5605;DHT22;9297;47.258;11.362;2024-02-04T08:39:30;3.60;99.40
5605;DHT22;9297;47.258;11.362;2024-02-04T08:41:59;3.70;99.40
5605;DHT22;9297;47.258;11.362;2024-02-04T08:44:25;3.70;99.30
5605;DHT22;9297;47.258;11.362;2024-02-04T08:47:05;3.60;99.90
5605;DHT22;9297;47.258;11.362;2024-02-04T08:49:32;3.70;99.90
5605;DHT22;9297;47.258;11.362;2024-02-04T08:51:59;3.70;99.90
5605;DHT22;9297;47.258;11.362;2024-02-04T08:54:26;3.80;99.90
5605;DHT22;9297;47.258;11.362;2024-02-04T08:56:53;3.90;99.90
5605;DHT22;9297;47.258;11.362;2024-02-04T08:59:22;3.90;99.90
5605;DHT22;9297;47.258;11.362;2024-02-04T09:01:48;4.10;99.90
5605;DHT22;9297;47.258;11.362;2024-02-04T09:04:16;4.10;99.90
5605;DHT22;9297;47.258;11.362;2024-02-04T09:06:43;4.30;99.90
5605;DHT22;9297;47.258;11.362;2024-02-04T09:09:10;4.40;99.90
5605;DHT22;9297;47.258;11.362;2024-02-04T09:11:37;4.50;99.90
5605;DHT22;9297;47.258;11.362;2024-02-04T09:14:04;4.50;99.90
5605;DHT22;9297;47.258;11.362;2024-02-04T09:16:32;4.50;99.90
5605;DHT22;9297;47.258;11.362;2024-02-04T09:18:59;4.60;99.90
5605;DHT22;9297;47.258;11.362;2024-02-04T09:21:27;4.60;99.90
5605;DHT22;9297;47.258;11.362;2024-02-04T09:23:54;4.70;99.90
5605;DHT22;9297;47.258;11.362;2024-02-04T09:26:21;4.70;99.90
5605;DHT22;9297;47.258;11.362;2024-02-04T09:28:48;4.70;99.90
5605;DHT22;9297;47.258;11.362;2024-02-04T09:31:16;4.80;99.90
5605;DHT22;9297;47.258;11.362;2024-02-04T09:33:45;4.90;99.90
5605;DHT22;9297;47.258;11.362;2024-02-04T09:36:12;5.00;99.90
5605;DHT22;9297;47.258;11.362;2024-02-04T09:38:39;5.10;99.90
5605;DHT22;9297;47.258;11.362;2024-02-04T09:41:07;5.20;99.90
5605;DHT22;9297;47.258;11.362;2024-02-04T09:43:35;5.10;99.70
5605;DHT22;9297;47.258;11.362;2024-02-04T09:46:04;5.20;98.80
5605;DHT22;9297;47.258;11.362;2024-02-04T09:48:32;5.20;99.30
5605;DHT22;9297;47.258;11.362;2024-02-04T09:51:02;5.50;98.20
5605;DHT22;9297;47.258;11.362;2024-02-04T09:53:33;5.70;97.80
5605;DHT22;9297;47.258;11.362;2024-02-04T09:56:02;5.70;95.60
5605;DHT22;9297;47.258;11.362;2024-02-04T09:58:29;5.60;95.40
5605;DHT22;9297;47.258;11.362;2024-02-04T10:00:57;5.70;96.40
5605;DHT22;9297;47.258;11.362;2024-02-04T10:03:25;5.90;94.80
5605;DHT22;9297;47.258;11.362;2024-02-04T10:05:52;5.90;99.90
5605;DHT22;9297;47.258;11.362;2024-02-04T10:08:21;6.00;95.40
5605;DHT22;9297;47.258;11.362;2024-02-04T10:10:48;6.10;95.90
5605;DHT22;9297;47.258;11.362;2024-02-04T10:13:15;6.40;95.40
5605;DHT22;9297;47.258;11.362;2024-02-04T10:15:42;6.40;93.00
5605;DHT22;9297;47.258;11.362;2024-02-04T10:18:10;6.50;92.60
5605;DHT22;9297;47.258;11.362;2024-02-04T10:20:37;6.60;92.60
5605;DHT22;9297;47.258;11.362;2024-02-04T10:23:04;6.60;91.20
5605;DHT22;9297;47.258;11.362;2024-02-04T10:25:32;6.80;90.90
5605;DHT22;9297;47.258;11.362;2024-02-04T10:27:59;6.90;89.90
5605;DHT22;9297;47.258;11.362;2024-02-04T10:30:26;7.00;88.30
5605;DHT22;9297;47.258;11.362;2024-02-04T10:32:54;7.20;87.80
5605;DHT22;9297;47.258;11.362;2024-02-04T10:35:21;7.20;86.20
5605;DHT22;9297;47.258;11.362;2024-02-04T10:37:48;7.20;86.80
5605;DHT22;9297;47.258;11.362;2024-02-04T10:40:15;7.30;87.20
5605;DHT22;9297;47.258;11.362;2024-02-04T10:42:44;7.40;87.70
5605;DHT22;9297;47.258;11.362;2024-02-04T10:45:11;7.60;86.10
5605;DHT22;9297;47.258;11.362;2024-02-04T10:47:39;7.70;84.70
5605;DHT22;9297;47.258;11.362;2024-02-04T10:50:07;7.80;85.90
5605;DHT22;9297;47.258;11.362;2024-02-04T10:52:36;7.80;84.00
5605;DHT22;9297;47.258;11.362;2024-02-04T10:55:07;8.00;85.20
5605;DHT22;9297;47.258;11.362;2024-02-04T10:57:35;8.00;83.90
5605;DHT22;9297;47.258;11.362;2024-02-04T11:00:04;8.20;84.30
5605;DHT22;9297;47.258;11.362;2024-02-04T11:02:31;8.30;80.80
5605;DHT22;9297;47.258;11.362;2024-02-04T11:05:01;8.30;80.00
5605;DHT22;9297;47.258;11.362;2024-02-04T11:07:32;8.50;79.60
5605;DHT22;9297;47.258;11.362;2024-02-04T11:09:59;8.70;80.70
5605;DHT22;9297;47.258;11.362;2024-02-04T11:12:28;8.80;77.70
5605;DHT22;9297;47.258;11.362;2024-02-04T11:14:59;9.00;76.40
5605;DHT22;9297;47.258;11.362;2024-02-04T11:20:33;9.50;72.70
5605;DHT22;9297;47.258;11.362;2024-02-04T11:23:17;9.60;74.60
5605;DHT22;9297;47.258;11.362;2024-02-04T11:25:49;9.80;71.60
5605;DHT22;9297;47.258;11.362;2024-02-04T11:28:18;9.90;68.80
5605;DHT22;9297;47.258;11.362;2024-02-04T11:30:46;10.00;68.70
5605;DHT22;9297;47.258;11.362;2024-02-04T11:33:19;10.20;67.40
5605;DHT22;9297;47.258;11.362;2024-02-04T11:35:46;10.50;65.50
5605;DHT22;9297;47.258;11.362;2024-02-04T11:38:17;10.80;64.30
5605;DHT22;9297;47.258;11.362;2024-02-04T11:40:45;10.70;65.60
5605;DHT22;9297;47.258;11.362;2024-02-04T11:43:14;10.90;63.80
5605;DHT22;9297;47.258;11.362;2024-02-04T11:45:42;10.90;62.70
5605;DHT22;9297;47.258;11.362;2024-02-04T11:48:10;11.10;62.30
5605;DHT22;9297;47.258;11.362;2024-02-04T11:50:39;11.40;62.80
5605;DHT22;9297;47.258;11.362;2024-02-04T11:53:08;11.40;62.00
5605;DHT22;9297;47.258;11.362;2024-02-04T11:55:38;11.50;60.20
5605;DHT22;9297;47.258;11.362;2024-02-04T11:58:12;11.80;60.00
5605;DHT22;9297;47.258;11.362;2024-02-04T12:00:42;11.90;59.60
5605;DHT22;9297;47.258;11.362;2024-02-04T12:03:10;12.00;59.70
5605;DHT22;9297;47.258;11.362;2024-02-04T12:05:39;12.00;59.60
5605;DHT22;9297;47.258;11.362;2024-02-04T12:08:07;11.90;57.80
5605;DHT22;9297;47.258;11.362;2024-02-04T12:10:35;11.70;59.10
5605;DHT22;9297;47.258;11.362;2024-02-04T12:13:03;12.00;60.50
5605;DHT22;9297;47.258;11.362;2024-02-04T12:15:32;11.70;59.30
5605;DHT22;9297;47.258;11.362;2024-02-04T12:18:06;11.70;60.10
5605;DHT22;9297;47.258;11.362;2024-02-04T12:20:33;11.40;59.40
5605;DHT22;9297;47.258;11.362;2024-02-04T12:23:02;11.60;59.20
5605;DHT22;9297;47.258;11.362;2024-02-04T12:25:30;11.70;59.50
5605;DHT22;9297;47.258;11.362;2024-02-04T12:27:58;11.80;58.20
5605;DHT22;9297;47.258;11.362;2024-02-04T12:30:27;12.00;59.00
5605;DHT22;9297;47.258;11.362;2024-02-04T12:32:57;12.10;58.90
5605;DHT22;9297;47.258;11.362;2024-02-04T12:35:24;11.90;58.10
5605;DHT22;9297;47.258;11.362;2024-02-04T12:37:52;12.10;59.20
5605;DHT22;9297;47.258;11.362;2024-02-04T12:40:23;12.30;57.40
5605;DHT22;9297;47.258;11.362;2024-02-04T12:42:54;12.40;58.20
5605;DHT22;9297;47.258;11.362;2024-02-04T12:45:22;12.60;57.10
5605;DHT22;9297;47.258;11.362;2024-02-04T12:47:50;12.80;56.70
5605;DHT22;9297;47.258;11.362;2024-02-04T12:50:17;12.90;54.40
5605;DHT22;9297;47.258;11.362;2024-02-04T12:52:45;12.90;54.50
5605;DHT22;9297;47.258;11.362;2024-02-04T12:55:24;13.20;54.70
5605;DHT22;9297;47.258;11.362;2024-02-04T12:58:01;13.50;55.20
5605;DHT22;9297;47.258;11.362;2024-02-04T13:00:28;13.60;53.60
5605;DHT22;9297;47.258;11.362;2024-02-04T13:02:55;13.80;54.00
5605;DHT22;9297;47.258;11.362;2024-02-04T13:05:22;13.80;52.80
5605;DHT22;9297;47.258;11.362;2024-02-04T13:07:54;14.20;53.50
5605;DHT22;9297;47.258;11.362;2024-02-04T13:10:23;14.30;53.30
5605;DHT22;9297;47.258;11.362;2024-02-04T13:13:00;14.20;54.40
5605;DHT22;9297;47.258;11.362;2024-02-04T13:15:28;14.30;53.10
5605;DHT22;9297;47.258;11.362;2024-02-04T13:17:56;14.30;51.50
5605;DHT22;9297;47.258;11.362;2024-02-04T13:20:23;14.30;50.60
5605;DHT22;9297;47.258;11.362;2024-02-04T13:22:50;14.30;50.10
5605;DHT22;9297;47.258;11.362;2024-02-04T13:25:17;14.30;51.60
5605;DHT22;9297;47.258;11.362;2024-02-04T13:27:46;14.20;51.60
5605;DHT22;9297;47.258;11.362;2024-02-04T13:30:14;14.00;50.70
5605;DHT22;9297;47.258;11.362;2024-02-04T13:32:41;13.70;51.00
5605;DHT22;9297;47.258;11.362;2024-02-04T13:35:09;13.80;51.10
5605;DHT22;9297;47.258;11.362;2024-02-04T13:37:46;13.60;51.10
5605;DHT22;9297;47.258;11.362;2024-02-04T13:40:14;13.50;52.00
5605;DHT22;9297;47.258;11.362;2024-02-04T13:42:41;13.50;52.70
5605;DHT22;9297;47.258;11.362;2024-02-04T13:45:10;13.70;53.00
5605;DHT22;9297;47.258;11.362;2024-02-04T13:47:37;13.60;52.10
5605;DHT22;9297;47.258;11.362;2024-02-04T13:50:05;13.80;52.20
5605;DHT22;9297;47.258;11.362;2024-02-04T13:52:32;13.90;53.10
5605;DHT22;9297;47.258;11.362;2024-02-04T13:54:59;14.00;53.20
5605;DHT22;9297;47.258;11.362;2024-02-04T13:57:27;14.00;53.20
5605;DHT22;9297;47.258;11.362;2024-02-04T13:59:54;14.10;54.20
5605;DHT22;9297;47.258;11.362;2024-02-04T14:02:22;14.00;53.80
5605;DHT22;9297;47.258;11.362;2024-02-04T14:04:49;14.10;54.40
5605;DHT22;9297;47.258;11.362;2024-02-04T14:07:16;14.30;54.10
5605;DHT22;9297;47.258;11.362;2024-02-04T14:09:43;14.50;52.70
5605;DHT22;9297;47.258;11.362;2024-02-04T14:12:10;14.50;51.70
5605;DHT22;9297;47.258;11.362;2024-02-04T14:14:37;14.70;51.90
5605;DHT22;9297;47.258;11.362;2024-02-04T14:17:04;14.50;50.80
5605;DHT22;9297;47.258;11.362;2024-02-04T14:19:33;14.60;51.20
5605;DHT22;9297;47.258;11.362;2024-02-04T14:22:00;14.50;49.90
5605;DHT22;9297;47.258;11.362;2024-02-04T14:24:27;14.90;47.50
5605;DHT22;9297;47.258;11.362;2024-02-04T14:26:57;14.90;47.60
5605;DHT22;9297;47.258;11.362;2024-02-04T14:29:24;15.60;35.80
5605;DHT22;9297;47.258;11.362;2024-02-04T14:31:52;16.30;32.30
5605;DHT22;9297;47.258;11.362;2024-02-04T14:34:19;16.60;31.90
5605;DHT22;9297;47.258;11.362;2024-02-04T14:36:47;16.80;28.70
5605;DHT22;9297;47.258;11.362;2024-02-04T14:39:14;16.90;30.50
5605;DHT22;9297;47.258;11.362;2024-02-04T14:41:41;16.80;32.40
5605;DHT22;9297;47.258;11.362;2024-02-04T14:44:08;17.00;29.20
5605;DHT22;9297;47.258;11.362;2024-02-04T14:46:36;17.10;29.60
5605;DHT22;9297;47.258;11.362;2024-02-04T14:49:03;17.00;29.60
5605;DHT22;9297;47.258;11.362;2024-02-04T14:51:30;16.80;28.80
5605;DHT22;9297;47.258;11.362;2024-02-04T14:53:58;16.70;28.20
5605;DHT22;9297;47.258;11.362;2024-02-04T14:56:25;16.70;28.30
5605;DHT22;9297;47.258;11.362;2024-02-04T14:58:52;16.60;27.90
5605;DHT22;9297;47.258;11.362;2024-02-04T15:01:19;16.50;28.70
5605;DHT22;9297;47.258;11.362;2024-02-04T15:03:48;16.60;28.40
5605;DHT22;9297;47.258;11.362;2024-02-04T15:06:15;16.70;27.50
5605;DHT22;9297;47.258;11.362;2024-02-04T15:08:43;16.60;26.90
5605;DHT22;9297;47.258;11.362;2024-02-04T15:11:11;16.70;27.50
5605;DHT22;9297;47.258;11.362;2024-02-04T15:13:38;16.70;28.10
5605;DHT22;9297;47.258;11.362;2024-02-04T15:16:06;16.80;26.30
5605;DHT22;9297;47.258;11.362;2024-02-04T15:18:34;16.80;27.20
5605;DHT22;9297;47.258;11.362;2024-02-04T15:21:02;16.80;26.40
5605;DHT22;9297;47.258;11.362;2024-02-04T15:23:29;16.80;25.50
5605;DHT22;9297;47.258;11.362;2024-02-04T15:25:57;16.80;26.90
5605;DHT22;9297;47.258;11.362;2024-02-04T15:28:26;16.80;27.40
5605;DHT22;9297;47.258;11.362;2024-02-04T15:30:54;16.70;27.30
5605;DHT22;9297;47.258;11.362;2024-02-04T15:33:21;16.80;26.10
5605;DHT22;9297;47.258;11.362;2024-02-04T15:35:48;16.70;26.80
5605;DHT22;9297;47.258;11.362;2024-02-04T15:38:15;16.60;26.90
5605;DHT22;9297;47.258;11.362;2024-02-04T15:40:44;16.60;26.60
5605;DHT22;9297;47.258;11.362;2024-02-04T15:43:11;16.50;26.90
5605;DHT22;9297;47.258;11.362;2024-02-04T15:45:40;16.50;27.40
5605;DHT22;9297;47.258;11.362;2024-02-04T15:48:09;16.50;27.20
5605;DHT22;9297;47.258;11.362;2024-02-04T15:50:37;16.40;28.10
5605;DHT22;9297;47.258;11.362;2024-02-04T15:53:05;16.50;27.00
5605;DHT22;9297;47.258;11.362;2024-02-04T15:55:33;16.40;28.10
5605;DHT22;9297;47.258;11.362;2024-02-04T15:58:03;16.40;27.60
5605;DHT22;9297;47.258;11.362;2024-02-04T16:00:31;16.40;28.00
5605;DHT22;9297;47.258;11.362;2024-02-04T16:03:02;16.30;28.00